JBU83 KJFK-KMCO
Flight info
| Callsign | JBU83 |
|---|---|
| Flight time | N/A |
| Altitude | 36000 |
| Route | WAVEY EMJAY Q167 ZJAAY Q97 SAWED MOXXY Q85 LPERD GTOUT1 |
| Aircraft | A320/M-SDE3FGHIRWY/LB1 |
Departure
| Time | 2026-05-09 18:00 |
|---|---|
| Airport | John F. Kennedy International Airport (KJFK) |
Arrival
| Time | N/A |
|---|---|
| Airport | Orlando International Airport (KMCO) |
| Time | Latitude | Longitude | Altitude | Speed | Heading |
|---|---|---|---|---|---|
| 2026-05-09 17:07 | 40.64618 | -73.77305 | 16 ft | 0 kts | 191° |
| 2026-05-09 17:41 | 40.64637 | -73.77301 | 18 ft | 3 kts | 189° |
| 2026-05-09 17:41 | 40.64655 | -73.77296 | 17 ft | 1 kts | 190° |
| 2026-05-09 17:41 | 40.64675 | -73.77294 | 17 ft | 3 kts | 163° |
| 2026-05-09 17:42 | 40.64691 | -73.77307 | 18 ft | 3 kts | 126° |
| 2026-05-09 17:42 | 40.64702 | -73.77328 | 18 ft | 3 kts | 121° |
| 2026-05-09 17:42 | 40.64712 | -73.77352 | 17 ft | 3 kts | 121° |
| 2026-05-09 17:42 | 40.64723 | -73.77375 | 17 ft | 3 kts | 121° |
| 2026-05-09 17:43 | 40.64734 | -73.77399 | 19 ft | 3 kts | 121° |
| 2026-05-09 17:43 | 40.64744 | -73.77422 | 17 ft | 3 kts | 121° |
| 2026-05-09 17:43 | 40.64755 | -73.77445 | 17 ft | 2 kts | 121° |
| 2026-05-09 17:43 | 40.64755 | -73.77446 | 17 ft | 0 kts | 121° |
| 2026-05-09 17:51 | 40.64753 | -73.77442 | 17 ft | 1 kts | 121° |
| 2026-05-09 17:52 | 40.64748 | -73.77431 | 18 ft | 2 kts | 121° |
| 2026-05-09 17:52 | 40.64741 | -73.77414 | 18 ft | 3 kts | 121° |
| 2026-05-09 17:52 | 40.64737 | -73.77392 | 16 ft | 2 kts | 87° |
| 2026-05-09 17:52 | 40.64764 | -73.77364 | 16 ft | 6 kts | 34° |
| 2026-05-09 17:53 | 40.64788 | -73.77331 | 16 ft | 3 kts | 93° |
| 2026-05-09 17:53 | 40.64769 | -73.77284 | 18 ft | 9 kts | 121° |
| 2026-05-09 17:53 | 40.64734 | -73.77207 | 16 ft | 10 kts | 120° |
| 2026-05-09 17:53 | 40.64692 | -73.77126 | 16 ft | 11 kts | 136° |
| 2026-05-09 17:54 | 40.64618 | -73.77088 | 16 ft | 9 kts | 176° |
| 2026-05-09 17:54 | 40.64574 | -73.77083 | 16 ft | 4 kts | 151° |
| 2026-05-09 17:54 | 40.64572 | -73.77043 | 16 ft | 7 kts | 90° |
| 2026-05-09 17:54 | 40.64574 | -73.76962 | 16 ft | 7 kts | 87° |
| 2026-05-09 17:55 | 40.64601 | -73.76917 | 17 ft | 6 kts | 33° |
| 2026-05-09 17:55 | 40.64639 | -73.76886 | 18 ft | 6 kts | 31° |
| 2026-05-09 17:55 | 40.64687 | -73.76847 | 19 ft | 11 kts | 31° |
| 2026-05-09 17:55 | 40.64756 | -73.76794 | 20 ft | 12 kts | 30° |
| 2026-05-09 17:56 | 40.64827 | -73.76738 | 20 ft | 13 kts | 31° |
| 2026-05-09 17:56 | 40.64915 | -73.76669 | 16 ft | 16 kts | 30° |
| 2026-05-09 17:56 | 40.65008 | -73.76596 | 16 ft | 16 kts | 31° |
| 2026-05-09 17:57 | 40.65099 | -73.76484 | 16 ft | 6 kts | 94° |
| 2026-05-09 17:57 | 40.65090 | -73.76452 | 17 ft | 0 kts | 123° |
| 2026-05-09 17:57 | 40.65086 | -73.76445 | 16 ft | 2 kts | 123° |
| 2026-05-09 17:57 | 40.65057 | -73.76383 | 16 ft | 8 kts | 121° |
| 2026-05-09 17:58 | 40.65052 | -73.76373 | 16 ft | 2 kts | 120° |
| 2026-05-09 17:58 | 40.65036 | -73.76340 | 16 ft | 0 kts | 127° |
| 2026-05-09 17:58 | 40.65034 | -73.76338 | 16 ft | 2 kts | 141° |
| 2026-05-09 17:58 | 40.65006 | -73.76370 | 16 ft | 12 kts | 213° |
| 2026-05-09 17:59 | 40.64955 | -73.76409 | 15 ft | 2 kts | 211° |
| 2026-05-09 17:59 | 40.64949 | -73.76414 | 16 ft | 12 kts | 211° |
| 2026-05-09 17:59 | 40.64674 | -73.76628 | 18 ft | 77 kts | 211° |
| 2026-05-09 17:59 | 40.64055 | -73.77112 | 20 ft | 127 kts | 211° |
| 2026-05-09 18:00 | 40.63173 | -73.77800 | 46 ft | 164 kts | 211° |
| 2026-05-09 18:00 | 40.62235 | -73.78522 | 723 ft | 153 kts | 210° |
| 2026-05-09 18:00 | 40.61365 | -73.79318 | 1351 ft | 154 kts | 218° |
| 2026-05-09 18:00 | 40.60509 | -73.80141 | 1937 ft | 161 kts | 217° |
| 2026-05-09 18:01 | 40.59562 | -73.81080 | 2267 ft | 176 kts | 219° |
| 2026-05-09 18:01 | 40.58567 | -73.82092 | 2759 ft | 186 kts | 219° |
| 2026-05-09 18:01 | 40.57492 | -73.83183 | 3102 ft | 208 kts | 218° |
| 2026-05-09 18:01 | 40.56265 | -73.84405 | 3459 ft | 233 kts | 215° |
| 2026-05-09 18:02 | 40.54800 | -73.85425 | 4234 ft | 241 kts | 207° |
| 2026-05-09 18:02 | 40.53212 | -73.86181 | 4838 ft | 246 kts | 191° |
| 2026-05-09 18:02 | 40.51487 | -73.85955 | 5570 ft | 257 kts | 166° |
| 2026-05-09 18:02 | 40.49967 | -73.84631 | 6419 ft | 273 kts | 139° |
| 2026-05-09 18:03 | 40.48762 | -73.82669 | 7223 ft | 277 kts | 135° |
| 2026-05-09 18:03 | 40.47599 | -73.80670 | 8066 ft | 281 kts | 134° |
| 2026-05-09 18:03 | 40.46414 | -73.78609 | 8891 ft | 284 kts | 134° |
| 2026-05-09 18:03 | 40.45216 | -73.76528 | 9704 ft | 287 kts | 134° |
| 2026-05-09 18:04 | 40.43998 | -73.74424 | 10289 ft | 296 kts | 135° |
| 2026-05-09 18:04 | 40.42694 | -73.72200 | 10481 ft | 319 kts | 134° |
| 2026-05-09 18:04 | 40.41287 | -73.69815 | 10669 ft | 341 kts | 134° |
| 2026-05-09 18:04 | 40.39832 | -73.67287 | 11101 ft | 354 kts | 129° |
| 2026-05-09 18:05 | 40.38834 | -73.64259 | 11636 ft | 373 kts | 108° |
| 2026-05-09 18:05 | 40.38682 | -73.60849 | 12163 ft | 389 kts | 86° |
| 2026-05-09 18:05 | 40.39255 | -73.57340 | 12725 ft | 397 kts | 78° |
| 2026-05-09 18:05 | 40.39851 | -73.53786 | 13299 ft | 400 kts | 88° |
| 2026-05-09 18:06 | 40.39683 | -73.50172 | 13846 ft | 396 kts | 109° |
| 2026-05-09 18:06 | 40.38636 | -73.46884 | 14354 ft | 388 kts | 129° |
| 2026-05-09 18:06 | 40.36906 | -73.44231 | 14877 ft | 382 kts | 141° |
| 2026-05-09 18:06 | 40.35110 | -73.41637 | 15405 ft | 388 kts | 137° |
| 2026-05-09 18:07 | 40.33324 | -73.38958 | 15931 ft | 391 kts | 137° |
| 2026-05-09 18:07 | 40.31517 | -73.36260 | 16452 ft | 395 kts | 137° |
| 2026-05-09 18:07 | 40.29714 | -73.33589 | 16973 ft | 398 kts | 137° |
| 2026-05-09 18:07 | 40.27861 | -73.30871 | 17515 ft | 402 kts | 138° |
| 2026-05-09 18:08 | 40.25744 | -73.28552 | 18039 ft | 395 kts | 154° |
| 2026-05-09 18:08 | 40.23348 | -73.26779 | 18545 ft | 396 kts | 157° |
| 2026-05-09 18:08 | 40.20911 | -73.25073 | 19062 ft | 397 kts | 161° |
| 2026-05-09 18:08 | 40.18316 | -73.24010 | 19590 ft | 388 kts | 177° |
| 2026-05-09 18:09 | 40.15662 | -73.23973 | 20141 ft | 379 kts | 193° |
| 2026-05-09 18:09 | 40.13120 | -73.24773 | 20685 ft | 376 kts | 200° |
| 2026-05-09 18:09 | 40.10673 | -73.25835 | 21194 ft | 374 kts | 207° |
| 2026-05-09 18:09 | 40.08387 | -73.27422 | 21684 ft | 372 kts | 217° |
| 2026-05-09 18:10 | 40.06345 | -73.29478 | 22166 ft | 371 kts | 223° |
| 2026-05-09 18:10 | 40.05687 | -73.30224 | 22325 ft | 372 kts | 223° |
| 2026-05-09 18:10 | 40.02418 | -73.33911 | 23111 ft | 375 kts | 223° |
| 2026-05-09 18:10 | 40.00435 | -73.36131 | 23558 ft | 377 kts | 223° |
| 2026-05-09 18:11 | 39.98437 | -73.38360 | 23944 ft | 379 kts | 223° |
| 2026-05-09 18:11 | 39.96433 | -73.40595 | 24325 ft | 380 kts | 223° |
| 2026-05-09 18:11 | 39.94423 | -73.42837 | 24692 ft | 381 kts | 223° |
| 2026-05-09 18:11 | 39.92404 | -73.45088 | 25061 ft | 382 kts | 223° |
| 2026-05-09 18:12 | 39.90406 | -73.47313 | 25409 ft | 384 kts | 223° |
| 2026-05-09 18:12 | 39.88372 | -73.49575 | 25765 ft | 385 kts | 224° |
| 2026-05-09 18:12 | 39.86332 | -73.51845 | 26118 ft | 387 kts | 224° |
| 2026-05-09 18:12 | 39.84285 | -73.54121 | 26466 ft | 388 kts | 224° |
| 2026-05-09 18:13 | 39.82230 | -73.56408 | 26811 ft | 390 kts | 224° |
| 2026-05-09 18:13 | 39.80167 | -73.58706 | 27158 ft | 391 kts | 224° |
| 2026-05-09 18:13 | 39.78098 | -73.61014 | 27491 ft | 393 kts | 224° |
| 2026-05-09 18:13 | 39.76018 | -73.63334 | 27825 ft | 394 kts | 224° |
| 2026-05-09 18:14 | 39.73932 | -73.65655 | 28159 ft | 396 kts | 224° |
| 2026-05-09 18:14 | 39.71840 | -73.67976 | 28586 ft | 395 kts | 224° |
| 2026-05-09 18:14 | 39.69783 | -73.70255 | 29054 ft | 393 kts | 224° |
| 2026-05-09 18:14 | 39.67706 | -73.72553 | 29519 ft | 392 kts | 224° |
| 2026-05-09 18:15 | 39.65634 | -73.74842 | 29967 ft | 391 kts | 224° |
| 2026-05-09 18:15 | 39.63568 | -73.77124 | 30381 ft | 389 kts | 225° |
| 2026-05-09 18:15 | 39.61512 | -73.79398 | 30791 ft | 388 kts | 225° |
| 2026-05-09 18:15 | 39.59464 | -73.81660 | 31201 ft | 386 kts | 226° |
| 2026-05-09 18:16 | 39.58113 | -73.83148 | 31477 ft | 385 kts | 226° |
| 2026-05-09 18:16 | 39.56075 | -73.85390 | 31900 ft | 383 kts | 227° |
| 2026-05-09 18:16 | 39.53394 | -73.88337 | 32484 ft | 380 kts | 227° |
| 2026-05-09 18:16 | 39.51385 | -73.90547 | 32934 ft | 378 kts | 228° |
| 2026-05-09 18:17 | 39.49390 | -73.92745 | 33385 ft | 376 kts | 229° |
| 2026-05-09 18:17 | 39.47405 | -73.94931 | 33816 ft | 373 kts | 229° |
| 2026-05-09 18:17 | 39.46097 | -73.96370 | 34082 ft | 372 kts | 229° |
| 2026-05-09 18:17 | 39.43467 | -73.99264 | 34500 ft | 371 kts | 229° |
| 2026-05-09 18:18 | 39.42166 | -74.00697 | 34678 ft | 371 kts | 229° |
| 2026-05-09 18:18 | 39.40198 | -74.02860 | 34934 ft | 371 kts | 229° |
| 2026-05-09 18:18 | 39.37587 | -74.05721 | 35256 ft | 372 kts | 229° |
| 2026-05-09 18:18 | 39.35612 | -74.07879 | 35503 ft | 372 kts | 229° |
| 2026-05-09 18:19 | 39.33636 | -74.10039 | 35743 ft | 372 kts | 229° |
| 2026-05-09 18:19 | 39.30340 | -74.13637 | 35957 ft | 376 kts | 229° |
| 2026-05-09 18:19 | 39.28364 | -74.15795 | 35964 ft | 381 kts | 229° |
| 2026-05-09 18:20 | 39.24286 | -74.20235 | 35966 ft | 385 kts | 229° |
| 2026-05-09 18:20 | 39.20179 | -74.24679 | 35966 ft | 385 kts | 229° |
| 2026-05-09 18:21 | 39.16074 | -74.29122 | 35966 ft | 385 kts | 229° |
| 2026-05-09 18:21 | 39.12005 | -74.33535 | 35965 ft | 385 kts | 229° |
| 2026-05-09 18:22 | 39.07908 | -74.37978 | 35966 ft | 385 kts | 229° |
| 2026-05-09 18:22 | 39.03804 | -74.42409 | 35973 ft | 386 kts | 229° |
| 2026-05-09 18:23 | 38.99688 | -74.46838 | 35971 ft | 386 kts | 229° |
| 2026-05-09 18:23 | 38.95604 | -74.51234 | 35987 ft | 386 kts | 229° |
| 2026-05-09 18:24 | 38.91544 | -74.55715 | 35976 ft | 383 kts | 231° |
| 2026-05-09 18:25 | 38.85694 | -74.62662 | 35976 ft | 381 kts | 232° |
| 2026-05-09 18:25 | 38.81797 | -74.67280 | 35964 ft | 381 kts | 232° |
| 2026-05-09 18:26 | 38.77902 | -74.71836 | 35968 ft | 382 kts | 231° |
| 2026-05-09 18:26 | 38.73947 | -74.76389 | 35970 ft | 383 kts | 230° |
| 2026-05-09 18:27 | 38.69817 | -74.80746 | 35974 ft | 386 kts | 228° |
| 2026-05-09 18:27 | 38.65615 | -74.85013 | 35973 ft | 385 kts | 228° |
| 2026-05-09 18:28 | 38.61439 | -74.89294 | 35974 ft | 385 kts | 229° |
| 2026-05-09 18:28 | 38.57313 | -74.93574 | 35976 ft | 384 kts | 229° |
| 2026-05-09 18:29 | 38.53168 | -74.97888 | 35974 ft | 384 kts | 229° |
| 2026-05-09 18:29 | 38.49116 | -75.02289 | 35974 ft | 382 kts | 231° |
| 2026-05-09 18:30 | 38.45091 | -75.06726 | 35976 ft | 384 kts | 229° |
| 2026-05-09 18:30 | 38.40842 | -75.10843 | 35981 ft | 387 kts | 226° |
| 2026-05-09 18:31 | 38.36475 | -75.14873 | 35979 ft | 387 kts | 226° |
| 2026-05-09 18:31 | 38.32137 | -75.18922 | 35977 ft | 386 kts | 227° |
| 2026-05-09 18:32 | 38.27832 | -75.23000 | 35981 ft | 385 kts | 227° |
| 2026-05-09 18:32 | 38.23536 | -75.27074 | 35976 ft | 385 kts | 227° |
| 2026-05-09 18:33 | 38.19269 | -75.31107 | 35977 ft | 385 kts | 227° |
| 2026-05-09 18:33 | 38.15361 | -75.34789 | 35971 ft | 384 kts | 227° |
| 2026-05-09 18:34 | 38.11069 | -75.38830 | 35978 ft | 384 kts | 227° |
| 2026-05-09 18:34 | 38.06776 | -75.42869 | 35980 ft | 384 kts | 227° |
| 2026-05-09 18:35 | 38.02483 | -75.46824 | 35982 ft | 385 kts | 225° |
| 2026-05-09 18:35 | 37.98056 | -75.50663 | 35980 ft | 386 kts | 225° |
| 2026-05-09 18:36 | 37.93610 | -75.54470 | 35981 ft | 385 kts | 225° |
| 2026-05-09 18:36 | 37.89188 | -75.58294 | 35981 ft | 385 kts | 225° |
| 2026-05-09 18:37 | 37.84811 | -75.62100 | 35978 ft | 384 kts | 225° |
| 2026-05-09 18:37 | 37.80289 | -75.65761 | 35952 ft | 388 kts | 222° |
| 2026-05-09 18:38 | 37.75614 | -75.69206 | 35951 ft | 389 kts | 221° |
| 2026-05-09 18:38 | 37.70943 | -75.72625 | 35948 ft | 388 kts | 222° |
| 2026-05-09 18:40 | 37.52721 | -75.86443 | 35948 ft | 375 kts | 229° |
| 2026-05-09 18:41 | 37.48702 | -75.90513 | 35949 ft | 373 kts | 230° |
| 2026-05-09 18:41 | 37.44656 | -75.94597 | 35947 ft | 373 kts | 230° |
| 2026-05-09 18:42 | 37.40616 | -75.98672 | 35946 ft | 372 kts | 230° |
| 2026-05-09 18:42 | 37.36580 | -76.02737 | 35943 ft | 372 kts | 230° |
| 2026-05-09 18:43 | 37.32612 | -76.06730 | 35943 ft | 371 kts | 230° |
| 2026-05-09 18:43 | 37.28612 | -76.10751 | 35939 ft | 371 kts | 230° |
| 2026-05-09 18:44 | 37.24580 | -76.14783 | 35939 ft | 370 kts | 230° |
| 2026-05-09 18:44 | 37.20550 | -76.18807 | 35931 ft | 370 kts | 230° |
| 2026-05-09 18:45 | 37.16534 | -76.22834 | 35930 ft | 369 kts | 230° |
| 2026-05-09 18:45 | 37.12546 | -76.26816 | 35927 ft | 369 kts | 230° |
| 2026-05-09 18:46 | 37.08536 | -76.30816 | 35931 ft | 368 kts | 230° |
| 2026-05-09 18:46 | 37.04530 | -76.34808 | 35930 ft | 368 kts | 230° |
| 2026-05-09 18:47 | 37.00524 | -76.38786 | 35926 ft | 367 kts | 230° |
| 2026-05-09 18:47 | 36.96558 | -76.42725 | 35972 ft | 367 kts | 230° |
| 2026-05-09 18:48 | 36.92557 | -76.46698 | 35967 ft | 367 kts | 230° |
| 2026-05-09 18:48 | 36.88565 | -76.50662 | 35946 ft | 366 kts | 230° |
| 2026-05-09 18:49 | 36.84575 | -76.54610 | 35944 ft | 366 kts | 230° |
| 2026-05-09 18:49 | 36.80607 | -76.58525 | 35945 ft | 366 kts | 230° |
| 2026-05-09 18:50 | 36.76615 | -76.62456 | 35961 ft | 366 kts | 230° |
| 2026-05-09 18:50 | 36.72621 | -76.66388 | 35959 ft | 366 kts | 230° |
| 2026-05-09 18:51 | 36.68623 | -76.70313 | 35958 ft | 365 kts | 230° |
| 2026-05-09 18:51 | 36.64635 | -76.74231 | 35952 ft | 365 kts | 230° |
| 2026-05-09 18:52 | 36.60675 | -76.78121 | 35948 ft | 365 kts | 230° |
| 2026-05-09 18:52 | 36.56687 | -76.82031 | 35940 ft | 365 kts | 230° |
| 2026-05-09 18:53 | 36.52698 | -76.85934 | 35941 ft | 365 kts | 230° |
| 2026-05-09 18:53 | 36.48712 | -76.89839 | 35937 ft | 364 kts | 230° |
| 2026-05-09 18:54 | 36.44750 | -76.93703 | 35936 ft | 364 kts | 230° |
| 2026-05-09 18:54 | 36.40762 | -76.97586 | 35934 ft | 364 kts | 230° |
| 2026-05-09 18:55 | 36.36776 | -77.01462 | 35939 ft | 364 kts | 230° |
| 2026-05-09 18:55 | 36.32785 | -77.05331 | 35941 ft | 364 kts | 230° |
| 2026-05-09 18:56 | 36.28826 | -77.09165 | 35944 ft | 364 kts | 230° |
| 2026-05-09 18:56 | 36.24845 | -77.13025 | 35940 ft | 364 kts | 230° |
| 2026-05-09 18:57 | 36.20864 | -77.16878 | 35938 ft | 364 kts | 230° |
| 2026-05-09 18:57 | 36.16872 | -77.20735 | 35938 ft | 364 kts | 230° |
| 2026-05-09 18:58 | 36.12917 | -77.24562 | 35938 ft | 364 kts | 230° |
| 2026-05-09 18:58 | 36.08929 | -77.28413 | 35931 ft | 359 kts | 230° |
| 2026-05-09 18:59 | 36.04970 | -77.32211 | 35947 ft | 361 kts | 230° |
| 2026-05-09 18:59 | 36.01009 | -77.36044 | 35946 ft | 361 kts | 230° |
| 2026-05-09 19:00 | 35.97087 | -77.39851 | 35948 ft | 361 kts | 230° |
| 2026-05-09 19:00 | 35.91167 | -77.45577 | 35945 ft | 360 kts | 230° |
| 2026-05-09 19:01 | 35.87216 | -77.49392 | 35948 ft | 361 kts | 230° |
| 2026-05-09 19:01 | 35.83263 | -77.53199 | 35953 ft | 361 kts | 230° |
| 2026-05-09 19:02 | 35.79337 | -77.56979 | 35954 ft | 361 kts | 230° |
| 2026-05-09 19:02 | 35.75379 | -77.60778 | 35958 ft | 361 kts | 230° |
| 2026-05-09 19:03 | 35.71420 | -77.64576 | 35960 ft | 360 kts | 230° |
| 2026-05-09 19:03 | 35.67465 | -77.68361 | 35962 ft | 360 kts | 230° |
| 2026-05-09 19:04 | 35.63543 | -77.72120 | 35961 ft | 360 kts | 230° |
| 2026-05-09 19:04 | 35.59593 | -77.75890 | 35962 ft | 359 kts | 230° |
| 2026-05-09 19:05 | 35.55654 | -77.79653 | 35965 ft | 359 kts | 230° |
| 2026-05-09 19:05 | 35.51714 | -77.83414 | 35960 ft | 358 kts | 230° |
| 2026-05-09 19:06 | 35.47811 | -77.87136 | 35964 ft | 358 kts | 230° |
| 2026-05-09 19:06 | 35.43876 | -77.90878 | 35949 ft | 357 kts | 230° |
| 2026-05-09 19:07 | 35.39943 | -77.94603 | 35949 ft | 357 kts | 230° |
| 2026-05-09 19:07 | 35.36014 | -77.98326 | 35958 ft | 357 kts | 231° |
| 2026-05-09 19:08 | 35.32115 | -78.02019 | 35961 ft | 357 kts | 230° |
| 2026-05-09 19:08 | 35.28188 | -78.05739 | 35961 ft | 357 kts | 231° |
| 2026-05-09 19:09 | 35.24262 | -78.09465 | 35954 ft | 357 kts | 230° |
| 2026-05-09 19:09 | 35.20330 | -78.13182 | 35951 ft | 358 kts | 230° |
| 2026-05-09 19:10 | 35.16386 | -78.16897 | 35948 ft | 358 kts | 230° |
| 2026-05-09 19:10 | 35.12467 | -78.20583 | 35946 ft | 358 kts | 230° |
| 2026-05-09 19:11 | 35.08516 | -78.24302 | 35938 ft | 359 kts | 230° |
| 2026-05-09 19:11 | 35.04556 | -78.28021 | 35941 ft | 360 kts | 230° |
| 2026-05-09 19:12 | 35.00586 | -78.31738 | 35936 ft | 360 kts | 230° |
| 2026-05-09 19:12 | 34.96632 | -78.35444 | 35937 ft | 361 kts | 230° |
| 2026-05-09 19:13 | 34.92648 | -78.39180 | 35938 ft | 362 kts | 230° |
| 2026-05-09 19:13 | 34.88655 | -78.42916 | 35934 ft | 362 kts | 230° |
| 2026-05-09 19:14 | 34.84648 | -78.46649 | 35933 ft | 363 kts | 230° |
| 2026-05-09 19:14 | 34.80660 | -78.50361 | 35930 ft | 364 kts | 229° |
| 2026-05-09 19:15 | 34.76636 | -78.54120 | 35935 ft | 365 kts | 229° |
| 2026-05-09 19:15 | 34.72598 | -78.57883 | 35935 ft | 366 kts | 229° |
| 2026-05-09 19:16 | 34.68542 | -78.61650 | 35934 ft | 367 kts | 229° |
| 2026-05-09 19:16 | 34.64496 | -78.65401 | 35934 ft | 368 kts | 229° |
| 2026-05-09 19:17 | 34.60419 | -78.69173 | 35931 ft | 369 kts | 229° |
| 2026-05-09 19:17 | 34.56338 | -78.72958 | 35936 ft | 370 kts | 229° |
| 2026-05-09 19:18 | 34.52242 | -78.76740 | 35933 ft | 371 kts | 228° |
| 2026-05-09 19:18 | 34.48161 | -78.80512 | 35929 ft | 372 kts | 228° |
| 2026-05-09 19:19 | 34.44024 | -78.84315 | 35923 ft | 374 kts | 227° |
| 2026-05-09 19:19 | 34.39765 | -78.88009 | 35923 ft | 379 kts | 226° |
| 2026-05-09 19:20 | 34.35403 | -78.91624 | 35922 ft | 381 kts | 225° |
| 2026-05-09 19:20 | 34.31058 | -78.95231 | 35926 ft | 382 kts | 225° |
| 2026-05-09 19:21 | 34.26686 | -78.98899 | 35925 ft | 383 kts | 226° |
| 2026-05-09 19:21 | 34.22306 | -79.02595 | 35930 ft | 385 kts | 226° |
| 2026-05-09 19:22 | 34.17911 | -79.06298 | 35933 ft | 386 kts | 226° |
| 2026-05-09 19:22 | 34.13525 | -79.09976 | 35933 ft | 387 kts | 226° |
| 2026-05-09 19:23 | 34.09086 | -79.13690 | 35933 ft | 389 kts | 226° |
| 2026-05-09 19:23 | 34.04631 | -79.17413 | 35935 ft | 390 kts | 226° |
| 2026-05-09 19:24 | 34.00159 | -79.21147 | 35939 ft | 391 kts | 226° |
| 2026-05-09 19:24 | 33.95684 | -79.24878 | 35959 ft | 392 kts | 226° |
| 2026-05-09 19:25 | 33.91234 | -79.28593 | 35961 ft | 391 kts | 226° |
| 2026-05-09 19:25 | 33.86766 | -79.32320 | 35960 ft | 391 kts | 226° |
| 2026-05-09 19:26 | 33.82288 | -79.36052 | 35970 ft | 391 kts | 226° |
| 2026-05-09 19:26 | 33.77810 | -79.39776 | 35968 ft | 391 kts | 226° |
| 2026-05-09 19:27 | 33.73363 | -79.43462 | 35967 ft | 391 kts | 226° |
| 2026-05-09 19:27 | 33.68884 | -79.47159 | 35964 ft | 390 kts | 226° |
| 2026-05-09 19:28 | 33.64413 | -79.50852 | 35966 ft | 390 kts | 226° |
| 2026-05-09 19:28 | 33.59946 | -79.54546 | 35961 ft | 390 kts | 226° |
| 2026-05-09 19:29 | 33.55484 | -79.58234 | 35962 ft | 389 kts | 226° |
| 2026-05-09 19:29 | 33.51046 | -79.61884 | 35961 ft | 389 kts | 226° |
| 2026-05-09 19:30 | 33.46583 | -79.65559 | 35961 ft | 389 kts | 226° |
| 2026-05-09 19:30 | 33.42126 | -79.69228 | 35962 ft | 389 kts | 226° |
| 2026-05-09 19:31 | 33.37671 | -79.72890 | 35963 ft | 389 kts | 225° |
| 2026-05-09 19:31 | 33.33237 | -79.76524 | 35965 ft | 389 kts | 225° |
| 2026-05-09 19:32 | 33.28779 | -79.80177 | 35967 ft | 388 kts | 225° |
| 2026-05-09 19:32 | 33.24322 | -79.83829 | 35968 ft | 388 kts | 225° |
| 2026-05-09 19:33 | 33.19860 | -79.87469 | 35973 ft | 388 kts | 225° |
| 2026-05-09 19:33 | 33.15391 | -79.91099 | 35968 ft | 389 kts | 225° |
| 2026-05-09 19:34 | 33.10960 | -79.94712 | 35967 ft | 388 kts | 225° |
| 2026-05-09 19:34 | 33.06497 | -79.98355 | 35970 ft | 389 kts | 225° |
| 2026-05-09 19:35 | 33.02029 | -80.01985 | 35966 ft | 389 kts | 225° |
| 2026-05-09 19:35 | 32.97556 | -80.05608 | 35964 ft | 389 kts | 225° |